createdAt,value
2022-09-22T00:00:19.612Z,99173.14
2022-09-22T00:03:13.684Z,99176.82
2022-09-22T00:05:45.674Z,99171.34
2022-09-22T00:08:18.738Z,99176.70
2022-09-22T00:11:03.952Z,99178.41
2022-09-22T00:13:39.225Z,99178.77
2022-09-22T00:16:14.582Z,99179.93
2022-09-22T00:18:48.341Z,99179.68
2022-09-22T00:21:22.977Z,99173.50
2022-09-22T00:23:57.681Z,99171.00
2022-09-22T00:26:29.652Z,99173.80
2022-09-22T00:29:03.733Z,99177.44
2022-09-22T00:31:36.786Z,99173.35
2022-09-22T00:34:17.485Z,99168.80
2022-09-22T00:36:51.685Z,99168.22
2022-09-22T00:39:24.960Z,99172.81
2022-09-22T00:41:58.427Z,99171.55
2022-09-22T00:44:35.999Z,99170.96
2022-09-22T00:47:21.464Z,99169.86
2022-09-22T00:49:57.110Z,99171.27
2022-09-22T00:52:31.997Z,99169.12
2022-09-22T00:55:07.627Z,99171.05
2022-09-22T00:57:41.086Z,99173.85
2022-09-22T01:00:16.333Z,99172.48
2022-09-22T01:02:57.454Z,99172.30
2022-09-22T01:05:31.972Z,99179.48
2022-09-22T01:08:05.470Z,99174.77
2022-09-22T01:10:37.710Z,99171.39
2022-09-22T01:13:24.569Z,99171.73
2022-09-22T01:16:08.563Z,99170.13
2022-09-22T01:18:54.304Z,99171.04
2022-09-22T01:21:38.360Z,99173.48
2022-09-22T01:24:42.471Z,99174.71
2022-09-22T01:27:54.569Z,99175.33
2022-09-22T01:30:34.106Z,99180.98
2022-09-22T01:33:23.157Z,99176.80
2022-09-22T01:36:10.307Z,99174.02
2022-09-22T01:38:49.396Z,99175.20
2022-09-22T01:41:25.669Z,99170.66
2022-09-22T01:44:02.761Z,99175.05
2022-09-22T01:46:38.042Z,99168.52
2022-09-22T01:49:12.002Z,99164.86
2022-09-22T01:51:50.077Z,99166.83
2022-09-22T01:54:28.841Z,99168.05
2022-09-22T01:57:05.934Z,99168.95
2022-09-22T01:59:40.092Z,99165.49
2022-09-22T02:02:18.025Z,99167.84
2022-09-22T02:04:55.420Z,99162.60
2022-09-22T02:07:31.095Z,99166.88
2022-09-22T02:10:07.332Z,99162.85
2022-09-22T02:12:41.804Z,99167.08
2022-09-22T02:15:31.444Z,99166.89
2022-09-22T02:18:10.846Z,99165.29
2022-09-22T02:20:44.422Z,99161.44
2022-09-22T02:23:16.699Z,99161.48
2022-09-22T02:25:50.691Z,99161.86
2022-09-22T02:28:24.578Z,99161.31
2022-09-22T02:31:18.996Z,99161.64
2022-09-22T02:33:53.474Z,99160.60
2022-09-22T02:36:39.297Z,99161.56
2022-09-22T02:39:18.799Z,99157.38
2022-09-22T02:42:04.690Z,99160.21
2022-09-22T02:44:41.813Z,99162.35
2022-09-22T02:47:21.117Z,99163.41
2022-09-22T02:49:53.611Z,99162.71
2022-09-22T02:52:29.176Z,99166.91
2022-09-22T02:55:04.508Z,99164.66
2022-09-22T02:57:37.513Z,99163.55
2022-09-22T03:00:13.572Z,99160.30
2022-09-22T03:02:47.472Z,99158.78
2022-09-22T03:05:23.357Z,99162.17
2022-09-22T03:07:56.169Z,99163.55
2022-09-22T03:10:29.995Z,99161.83
2022-09-22T03:13:16.410Z,99164.33
2022-09-22T03:15:53.825Z,99162.42
2022-09-22T03:18:26.492Z,99164.19
2022-09-22T03:20:59.585Z,99160.71
2022-09-22T03:23:33.880Z,99161.96
2022-09-22T03:26:08.238Z,99161.96
2022-09-22T03:28:40.772Z,99161.98
2022-09-22T03:31:13.823Z,99160.82
2022-09-22T03:33:50.596Z,99166.61
2022-09-22T03:36:25.548Z,99164.50
2022-09-22T03:38:59.408Z,99165.44
2022-09-22T03:41:33.463Z,99171.41
2022-09-22T03:44:06.367Z,99174.97
2022-09-22T03:46:38.986Z,99173.45
2022-09-22T03:49:12.593Z,99170.16
2022-09-22T03:51:47.786Z,99170.00
2022-09-22T03:54:21.182Z,99168.45
2022-09-22T03:56:54.817Z,99167.77
2022-09-22T03:59:26.837Z,99166.71
2022-09-22T04:02:02.884Z,99169.35
2022-09-22T04:04:37.824Z,99170.73
2022-09-22T04:07:10.444Z,99169.33
2022-09-22T04:09:43.306Z,99167.06
2022-09-22T04:12:16.623Z,99162.66
2022-09-22T04:14:48.857Z,99163.34
2022-09-22T04:17:22.666Z,99167.23
2022-09-22T04:19:56.380Z,99171.64
2022-09-22T04:22:30.068Z,99174.98
2022-09-22T04:25:05.655Z,99170.38
2022-09-22T04:27:40.065Z,99171.06
2022-09-22T04:30:15.074Z,99171.58
2022-09-22T04:32:48.327Z,99171.42
2022-09-22T04:35:21.593Z,99169.16
2022-09-22T04:37:54.649Z,99174.77
2022-09-22T04:40:27.788Z,99172.48
2022-09-22T04:43:00.135Z,99174.23
2022-09-22T04:45:36.043Z,99178.41
2022-09-22T04:48:09.666Z,99182.25
2022-09-22T04:50:48.127Z,99180.15
2022-09-22T04:53:21.889Z,99176.77
2022-09-22T04:55:56.577Z,99176.78
2022-09-22T04:58:30.870Z,99181.21
2022-09-22T05:01:07.132Z,99189.25
2022-09-22T05:03:39.526Z,99190.56
2022-09-22T05:06:12.700Z,99180.57
2022-09-22T05:08:45.508Z,99180.94
2022-09-22T05:11:19.930Z,99186.30
2022-09-22T05:13:53.171Z,99189.68
2022-09-22T05:16:27.093Z,99186.90
2022-09-22T05:19:02.603Z,99180.08
2022-09-22T05:21:35.533Z,99177.30
2022-09-22T05:24:08.196Z,99179.27
2022-09-22T05:26:41.066Z,99176.64
2022-09-22T05:29:14.698Z,99182.30
2022-09-22T05:31:47.854Z,99176.20
2022-09-22T05:34:21.383Z,99181.65
2022-09-22T05:36:55.044Z,99184.83
2022-09-22T05:39:28.343Z,99182.02
2022-09-22T05:42:00.914Z,99188.27
2022-09-22T05:44:35.312Z,99188.23
2022-09-22T05:47:07.959Z,99189.84
2022-09-22T05:49:40.602Z,99189.17
2022-09-22T05:52:15.397Z,99186.23
2022-09-22T05:54:48.295Z,99188.73
2022-09-22T05:57:22.225Z,99188.03
2022-09-22T05:59:55.262Z,99194.02
2022-09-22T06:02:30.567Z,99198.09
2022-09-22T06:05:04.584Z,99201.08
2022-09-22T06:07:38.086Z,99210.34
2022-09-22T06:10:11.729Z,99213.86
2022-09-22T06:12:43.757Z,99211.83
2022-09-22T06:15:15.981Z,99211.89
2022-09-22T06:17:48.081Z,99211.27
2022-09-22T06:20:22.087Z,99211.30
2022-09-22T06:22:55.897Z,99209.73
2022-09-22T06:25:29.653Z,99208.38
2022-09-22T06:28:05.071Z,99205.92
2022-09-22T06:30:40.392Z,99205.92
2022-09-22T06:33:13.990Z,99211.45
2022-09-22T06:36:00.462Z,99215.91
2022-09-22T06:38:33.790Z,99214.18
2022-09-22T06:41:07.428Z,99219.30
2022-09-22T06:43:42.604Z,99221.44
2022-09-22T06:46:19.032Z,99219.15
2022-09-22T06:48:56.858Z,99223.05
2022-09-22T06:51:32.946Z,99221.64
2022-09-22T06:54:07.775Z,99223.41
2022-09-22T06:56:43.175Z,99223.56
2022-09-22T06:59:19.044Z,99225.34
2022-09-22T07:01:51.670Z,99224.63
2022-09-22T07:04:25.341Z,99224.80
2022-09-22T07:06:58.820Z,99229.40
2022-09-22T07:09:32.033Z,99224.29
2022-09-22T07:12:06.286Z,99226.04
2022-09-22T07:14:38.139Z,99226.40
2022-09-22T07:17:11.229Z,99220.40
2022-09-22T07:19:47.699Z,99223.58
2022-09-22T07:22:20.564Z,99221.45
2022-09-22T07:25:02.203Z,99223.73
2022-09-22T07:27:35.844Z,99227.80
2022-09-22T07:30:10.821Z,99228.34
2022-09-22T07:32:44.128Z,99229.59
2022-09-22T07:35:17.556Z,99227.27
2022-09-22T07:37:57.243Z,99226.73
2022-09-22T07:40:32.243Z,99229.41
2022-09-22T07:43:04.747Z,99227.64
2022-09-22T07:45:43.203Z,99224.98
2022-09-22T07:48:34.516Z,99225.68
2022-09-22T07:51:12.932Z,99217.89
2022-09-22T07:53:47.611Z,99214.88
2022-09-22T07:56:24.013Z,99215.77
2022-09-22T07:58:57.841Z,99217.01
2022-09-22T08:01:36.211Z,99215.75
2022-09-22T08:04:16.979Z,99215.90
2022-09-22T08:06:52.134Z,99215.70
2022-09-22T08:09:25.927Z,99218.67
2022-09-22T08:11:58.158Z,99225.74
2022-09-22T08:14:32.329Z,99226.80
2022-09-22T08:17:05.625Z,99228.71
2022-09-22T08:19:39.207Z,99231.11
2022-09-22T08:22:13.437Z,99230.05
2022-09-22T08:24:46.696Z,99230.22
2022-09-22T08:27:19.478Z,99229.94
2022-09-22T08:29:52.454Z,99229.42
2022-09-22T08:32:30.663Z,99236.33
2022-09-22T08:35:05.837Z,99234.92
2022-09-22T08:37:39.538Z,99234.14
2022-09-22T08:40:18.150Z,99234.43
2022-09-22T08:42:55.477Z,99232.21
2022-09-22T08:45:35.613Z,99226.89
2022-09-22T08:48:30.042Z,99227.86
2022-09-22T08:51:26.488Z,99227.36
2022-09-22T08:54:03.316Z,99232.56
2022-09-22T08:56:39.682Z,99232.88
2022-09-22T08:59:17.716Z,99229.43
2022-09-22T09:02:23.917Z,99233.88
2022-09-22T09:05:16.664Z,99231.30
2022-09-22T09:08:00.290Z,99229.48
2022-09-22T09:10:44.743Z,99227.79
2022-09-22T09:13:27.132Z,99220.14
2022-09-22T09:16:10.375Z,99217.95
2022-09-22T09:18:52.354Z,99209.75
2022-09-22T09:21:25.956Z,99214.06
2022-09-22T09:26:54.145Z,99212.02
2022-09-22T09:29:29.026Z,99214.09
2022-09-22T09:32:04.138Z,99214.74
2022-09-22T09:34:36.431Z,99209.74
2022-09-22T09:37:15.281Z,99212.55
2022-09-22T09:39:48.775Z,99212.11
2022-09-22T09:42:25.402Z,99208.85
2022-09-22T09:45:02.952Z,99205.59
2022-09-22T09:47:50.196Z,99208.42
2022-09-22T09:50:24.328Z,99212.20
2022-09-22T09:52:58.360Z,99207.23
2022-09-22T09:55:32.474Z,99208.77
2022-09-22T09:58:34.019Z,99208.50
2022-09-22T10:01:10.631Z,99206.80
2022-09-22T10:03:51.894Z,99206.41
2022-09-22T10:06:29.032Z,99211.02
2022-09-22T10:09:02.016Z,99209.86
2022-09-22T10:11:35.023Z,99211.95
2022-09-22T10:14:10.023Z,99214.09
2022-09-22T10:16:54.274Z,99218.29
2022-09-22T10:19:30.705Z,99218.52
2022-09-22T10:22:30.046Z,99218.61
2022-09-22T10:25:05.362Z,99220.76
2022-09-22T10:27:38.732Z,99218.33
2022-09-22T10:30:25.795Z,99216.09
2022-09-22T10:33:16.823Z,99212.75
2022-09-22T10:35:56.363Z,99210.59
2022-09-22T10:38:30.718Z,99209.83
2022-09-22T10:41:08.037Z,99209.08
2022-09-22T10:43:45.651Z,99206.25
2022-09-22T10:46:33.941Z,99202.61
2022-09-22T10:49:14.590Z,99198.59
2022-09-22T10:52:06.828Z,99192.56
2022-09-22T10:54:52.007Z,99196.13
2022-09-22T10:57:36.153Z,99201.02
2022-09-22T11:00:15.111Z,99208.36
2022-09-22T11:03:12.113Z,99220.27
2022-09-22T11:06:17.375Z,99221.08
2022-09-22T11:09:17.355Z,99214.48
2022-09-22T11:12:18.412Z,99206.31
2022-09-22T11:15:08.070Z,99206.11
2022-09-22T11:18:01.815Z,99206.62
2022-09-22T11:20:38.243Z,99204.85
2022-09-22T11:23:35.373Z,99197.75
2022-09-22T11:26:19.069Z,99195.32
2022-09-22T11:29:11.912Z,99188.83
2022-09-22T11:31:49.985Z,99180.64
2022-09-22T11:34:46.261Z,99176.84
2022-09-22T11:37:32.120Z,99176.04
2022-09-22T11:40:23.992Z,99172.15
2022-09-22T11:43:05.635Z,99171.86
2022-09-22T11:45:48.216Z,99173.05
2022-09-22T11:48:33.120Z,99169.76
2022-09-22T11:51:16.610Z,99166.06
2022-09-22T11:54:10.362Z,99163.08
2022-09-22T11:56:46.870Z,99162.39
2022-09-22T11:59:32.774Z,99152.72
2022-09-22T12:02:12.515Z,99151.22
2022-09-22T12:04:49.011Z,99149.09
2022-09-22T12:07:26.136Z,99148.85
2022-09-22T12:10:00.866Z,99141.29
2022-09-22T12:12:34.476Z,99139.39
2022-09-22T12:15:17.019Z,99138.62
2022-09-22T12:17:52.765Z,99140.20
2022-09-22T12:20:35.305Z,99138.01
2022-09-22T12:23:37.218Z,99139.97
2022-09-22T12:26:12.548Z,99134.01
2022-09-22T12:28:46.649Z,99137.56
2022-09-22T12:31:21.420Z,99135.54
2022-09-22T12:33:55.936Z,99137.48
2022-09-22T12:36:34.267Z,99135.49
2022-09-22T12:39:18.223Z,99133.09
2022-09-22T12:41:53.554Z,99126.05
2022-09-22T12:44:28.406Z,99126.79
2022-09-22T12:47:04.466Z,99124.74
2022-09-22T12:49:37.402Z,99120.68
2022-09-22T12:52:59.231Z,99116.99
2022-09-22T12:55:39.641Z,99113.73
2022-09-22T12:58:41.892Z,99114.89
2022-09-22T13:01:36.902Z,99108.21
2022-09-22T13:04:22.018Z,99109.35
2022-09-22T13:07:00.513Z,99111.55
2022-09-22T13:09:46.018Z,99113.56
2022-09-22T13:12:31.896Z,99112.11
2022-09-22T13:15:28.320Z,99117.83
2022-09-22T13:18:00.888Z,99122.71
2022-09-22T13:20:36.348Z,99125.34
2022-09-22T13:23:14.742Z,99122.30
2022-09-22T13:25:48.760Z,99115.27
2022-09-22T13:28:22.852Z,99116.61
2022-09-22T13:31:06.802Z,99117.83
2022-09-22T13:33:40.224Z,99119.41
2022-09-22T13:36:16.146Z,99121.34
2022-09-22T13:38:54.279Z,99120.73
2022-09-22T13:41:30.354Z,99114.35
2022-09-22T13:44:07.974Z,99109.07
2022-09-22T13:46:46.102Z,99104.58
2022-09-22T13:49:28.253Z,99107.04
2022-09-22T13:52:04.213Z,99102.39
2022-09-22T13:54:38.478Z,99099.69
2022-09-22T13:57:24.325Z,99093.61
2022-09-22T13:59:58.888Z,99091.48
2022-09-22T14:02:33.078Z,99086.18
2022-09-22T14:05:08.004Z,99084.69
2022-09-22T14:08:00.994Z,99087.73
2022-09-22T14:10:34.562Z,99087.80
2022-09-22T14:13:39.966Z,99088.36
2022-09-22T14:16:16.701Z,99088.29
2022-09-22T14:18:51.523Z,99086.14
2022-09-22T14:21:25.435Z,99086.72
2022-09-22T14:23:58.580Z,99082.89
2022-09-22T14:26:39.081Z,99084.14
2022-09-22T14:29:21.445Z,99091.10
2022-09-22T14:31:59.276Z,99092.63
2022-09-22T14:34:33.394Z,99093.84
2022-09-22T14:37:21.448Z,99091.99
2022-09-22T14:39:55.544Z,99090.59
2022-09-22T14:42:30.936Z,99095.69
2022-09-22T14:45:22.069Z,99092.65
2022-09-22T14:48:20.728Z,99096.88
2022-09-22T14:51:02.534Z,99095.23
2022-09-22T14:53:37.698Z,99093.57
2022-09-22T14:56:23.102Z,99093.84
2022-09-22T14:58:57.519Z,99087.86
2022-09-22T15:01:52.849Z,99086.83
2022-09-22T15:04:27.561Z,99091.59
2022-09-22T15:07:04.159Z,99089.84
2022-09-22T15:09:40.592Z,99088.91
2022-09-22T15:15:23.214Z,99086.84
2022-09-22T15:18:17.020Z,99088.79
2022-09-22T15:20:53.231Z,99090.26
2022-09-22T15:23:31.912Z,99092.27
2022-09-22T15:26:05.645Z,99097.26
2022-09-22T15:28:40.036Z,99100.01
2022-09-22T15:31:17.325Z,99097.35
2022-09-22T15:33:50.326Z,99091.46
2022-09-22T15:36:23.845Z,99087.96
2022-09-22T15:39:03.023Z,99088.94
2022-09-22T15:41:37.614Z,99088.36
2022-09-22T15:44:12.561Z,99092.07
2022-09-22T15:46:48.429Z,99091.61
2022-09-22T15:49:25.034Z,99097.58
2022-09-22T15:51:58.370Z,99097.38
2022-09-22T15:54:31.686Z,99105.45
2022-09-22T15:57:05.531Z,99127.09
2022-09-22T15:59:39.721Z,99111.02
2022-09-22T16:02:15.911Z,99119.00
2022-09-22T16:04:48.952Z,99120.02
2022-09-22T16:07:22.342Z,99121.31
2022-09-22T16:09:55.008Z,99119.91
2022-09-22T16:12:28.343Z,99119.05
2022-09-22T16:15:02.997Z,99122.96
2022-09-22T16:17:39.334Z,99125.79
2022-09-22T16:20:17.814Z,99126.31
2022-09-22T16:22:51.038Z,99120.34
2022-09-22T16:25:23.943Z,99119.45
2022-09-22T16:27:57.038Z,99117.71
2022-09-22T16:30:30.444Z,99117.54
2022-09-22T16:33:05.131Z,99116.66
2022-09-22T16:35:39.459Z,99120.89
2022-09-22T16:38:12.365Z,99124.79
2022-09-22T16:40:45.948Z,99122.67
2022-09-22T16:43:24.375Z,99120.73
2022-09-22T16:46:14.965Z,99129.72
2022-09-22T16:48:51.151Z,99126.20
2022-09-22T16:51:26.157Z,99127.62
2022-09-22T16:53:59.854Z,99121.80
2022-09-22T16:56:34.104Z,99125.32
2022-09-22T16:59:07.960Z,99128.84
2022-09-22T17:01:44.012Z,99131.49
2022-09-22T17:04:19.224Z,99132.20
2022-09-22T17:06:54.299Z,99132.21
2022-09-22T17:09:29.320Z,99129.92
2022-09-22T17:12:09.010Z,99137.15
2022-09-22T17:14:43.721Z,99133.97
2022-09-22T17:17:17.365Z,99134.85
2022-09-22T17:19:52.952Z,99133.61
2022-09-22T17:22:27.533Z,99136.63
2022-09-22T17:25:00.508Z,99138.20
2022-09-22T17:27:40.594Z,99141.21
2022-09-22T17:30:16.471Z,99140.15
2022-09-22T17:32:53.811Z,99139.80
2022-09-22T17:35:27.271Z,99142.97
2022-09-22T17:38:00.934Z,99138.92
2022-09-22T17:40:37.042Z,99143.14
2022-09-22T17:43:11.402Z,99145.96
2022-09-22T17:45:44.489Z,99147.73
2022-09-22T17:48:36.738Z,99142.79
2022-09-22T17:51:53.652Z,99139.27
2022-09-22T17:54:48.436Z,99135.37
2022-09-22T17:57:24.401Z,99130.26
2022-09-22T17:59:58.460Z,99132.91
2022-09-22T18:02:39.196Z,99136.44
2022-09-22T18:05:18.433Z,99141.38
2022-09-22T18:07:54.824Z,99145.08
2022-09-22T18:10:33.492Z,99147.20
2022-09-22T18:13:10.046Z,99149.66
2022-09-22T18:15:43.508Z,99151.96
2022-09-22T18:18:16.967Z,99152.48
2022-09-22T18:20:50.509Z,99154.77
2022-09-22T18:23:28.493Z,99156.72
2022-09-22T18:26:04.609Z,99158.66
2022-09-22T18:28:38.777Z,99157.79
2022-09-22T18:31:12.410Z,99157.42
2022-09-22T18:33:49.891Z,99157.09
2022-09-22T18:36:25.927Z,99160.08
2022-09-22T18:38:59.162Z,99158.84
2022-09-22T18:41:35.905Z,99164.14
2022-09-22T18:44:09.466Z,99165.20
2022-09-22T18:46:48.506Z,99168.20
2022-09-22T18:49:27.367Z,99167.48
2022-09-22T18:52:00.629Z,99163.60
2022-09-22T18:54:34.604Z,99165.01
2022-09-22T18:57:13.606Z,99163.95
2022-09-22T18:59:52.550Z,99166.95
2022-09-22T19:02:26.391Z,99166.25
2022-09-22T19:05:08.074Z,99163.95
2022-09-22T19:07:44.184Z,99159.73
2022-09-22T19:10:22.207Z,99156.55
2022-09-22T19:12:56.552Z,99153.38
2022-09-22T19:15:33.286Z,99156.19
2022-09-22T19:18:07.772Z,99156.53
2022-09-22T19:20:41.414Z,99157.40
2022-09-22T19:23:14.252Z,99151.95
2022-09-22T19:25:52.209Z,99155.11
2022-09-22T19:28:26.527Z,99158.80
2022-09-22T19:30:59.616Z,99164.27
2022-09-22T19:33:32.938Z,99163.55
2022-09-22T19:36:06.149Z,99164.44
2022-09-22T19:38:38.892Z,99163.90
2022-09-22T19:41:12.924Z,99162.30
2022-09-22T19:43:45.282Z,99164.75
2022-09-22T19:46:21.273Z,99164.95
2022-09-22T19:48:53.902Z,99166.70
2022-09-22T19:51:27.300Z,99166.52
2022-09-22T19:53:59.909Z,99165.08
2022-09-22T19:56:35.082Z,99168.38
2022-09-22T19:59:08.366Z,99171.20
2022-09-22T20:01:42.322Z,99168.91
2022-09-22T20:04:19.195Z,99165.89
2022-09-22T20:06:52.095Z,99166.23
2022-09-22T20:09:27.330Z,99166.73
2022-09-22T20:12:04.863Z,99164.60
2022-09-22T20:14:38.034Z,99165.81
2022-09-22T20:17:10.839Z,99166.16
2022-09-22T20:19:45.144Z,99166.33
2022-09-22T20:22:25.479Z,99164.58
2022-09-22T20:25:02.653Z,99161.54
2022-09-22T20:27:38.103Z,99162.77
2022-09-22T20:30:17.413Z,99163.11
2022-09-22T20:32:51.245Z,99161.50
2022-09-22T20:35:25.037Z,99161.30
2022-09-22T20:38:00.726Z,99159.34
2022-09-22T20:40:34.703Z,99162.48
2022-09-22T20:43:13.919Z,99162.48
2022-09-22T20:45:48.979Z,99160.39
2022-09-22T20:48:24.415Z,99163.19
2022-09-22T20:51:04.320Z,99162.83
2022-09-22T20:53:38.421Z,99160.55
2022-09-22T20:56:14.454Z,99155.27
2022-09-22T20:58:49.306Z,99162.33
2022-09-22T21:01:21.630Z,99160.23
2022-09-22T21:03:57.121Z,99160.78
2022-09-22T21:06:31.071Z,99159.55
2022-09-22T21:09:22.518Z,99160.23
2022-09-22T21:11:56.723Z,99163.27
2022-09-22T21:14:32.976Z,99162.03
2022-09-22T21:17:07.815Z,99160.63
2022-09-22T21:19:47.819Z,99156.94
2022-09-22T21:22:23.407Z,99152.19
2022-09-22T21:24:57.411Z,99150.95
2022-09-22T21:27:29.573Z,99152.73
2022-09-22T21:30:04.120Z,99155.71
2022-09-22T21:32:39.585Z,99153.05
2022-09-22T21:35:17.902Z,99151.83
2022-09-22T21:37:50.166Z,99149.72
2022-09-22T21:40:25.367Z,99148.45
2022-09-22T21:42:57.468Z,99150.55
2022-09-22T21:45:30.973Z,99150.55
2022-09-22T21:48:04.319Z,99148.96
2022-09-22T21:50:39.666Z,99146.15
2022-09-22T21:53:11.974Z,99144.02
2022-09-22T21:55:48.964Z,99145.77
2022-09-22T21:58:22.043Z,99146.99
2022-09-22T22:00:58.027Z,99144.91
2022-09-22T22:03:35.217Z,99147.02
2022-09-22T22:06:10.911Z,99147.02
2022-09-22T22:08:45.854Z,99148.41
2022-09-22T22:11:22.267Z,99150.13
2022-09-22T22:13:57.653Z,99146.23
2022-09-22T22:16:32.848Z,99148.52
2022-09-22T22:19:06.528Z,99146.96
2022-09-22T22:21:42.935Z,99143.98
2022-09-22T22:24:36.120Z,99143.48
2022-09-22T22:27:11.219Z,99145.23
2022-09-22T22:29:46.313Z,99140.83
2022-09-22T22:32:19.204Z,99134.67
2022-09-22T22:34:52.565Z,99130.98
2022-09-22T22:37:26.138Z,99129.23
2022-09-22T22:40:01.670Z,99127.11
2022-09-22T22:42:34.433Z,99128.02
2022-09-22T22:45:08.751Z,99127.67
2022-09-22T22:47:42.491Z,99123.46
2022-09-22T22:50:14.772Z,99119.09
2022-09-22T22:52:47.997Z,99120.14
2022-09-22T22:55:22.037Z,99123.11
2022-09-22T22:57:54.185Z,99120.13
2022-09-22T23:00:27.188Z,99122.95
2022-09-22T23:03:02.603Z,99120.11
2022-09-22T23:05:43.103Z,99118.69
2022-09-22T23:08:17.694Z,99119.23
2022-09-22T23:10:50.275Z,99114.13
2022-09-22T23:13:23.215Z,99117.13
2022-09-22T23:16:05.721Z,99113.27
2022-09-22T23:18:39.813Z,99113.63
2022-09-22T23:21:13.573Z,99113.27
2022-09-22T23:23:46.485Z,99107.46
2022-09-22T23:26:19.729Z,99107.30
2022-09-22T23:28:54.320Z,99104.48
2022-09-22T23:31:28.796Z,99105.37
2022-09-22T23:34:05.386Z,99099.23
2022-09-22T23:36:40.315Z,99102.40
2022-09-22T23:39:15.152Z,99099.23
2022-09-22T23:41:49.078Z,99100.09
2022-09-22T23:44:25.846Z,99095.52
2022-09-22T23:46:59.563Z,99094.98
2022-09-22T23:49:33.002Z,99092.86
2022-09-22T23:52:06.318Z,99087.05
2022-09-22T23:54:38.501Z,99088.81
2022-09-22T23:57:10.364Z,99094.27
2022-09-22T23:59:45.941Z,99093.75
